createdAt,value
2023-05-20T00:03:21.221Z,16.29
2023-05-20T00:07:33.793Z,16.15
2023-05-20T00:11:46.853Z,16.28
2023-05-20T00:15:59.501Z,16.47
2023-05-20T00:20:12.267Z,16.40
2023-05-20T00:24:25.612Z,16.30
2023-05-20T00:28:38.031Z,16.12
2023-05-20T00:32:50.443Z,16.06
2023-05-20T00:37:02.928Z,16.13
2023-05-20T00:41:15.352Z,16.24
2023-05-20T00:45:27.903Z,16.34
2023-05-20T00:49:40.424Z,16.36
2023-05-20T00:53:52.962Z,16.44
2023-05-20T00:58:06.593Z,16.21
2023-05-20T01:02:19.954Z,16.01
2023-05-20T01:06:34.108Z,16.10
2023-05-20T01:10:50.145Z,16.24
2023-05-20T01:15:08.163Z,16.28
2023-05-20T01:19:46.699Z,16.64
2023-05-20T01:23:59.155Z,17.03
2023-05-20T01:28:18.246Z,18.13
2023-05-20T01:32:38.394Z,18.24
2023-05-20T01:36:55.114Z,17.67
2023-05-20T01:41:07.847Z,17.82
2023-05-20T01:45:20.748Z,17.97
2023-05-20T01:49:36.085Z,17.45
2023-05-20T01:53:48.410Z,17.08
2023-05-20T01:58:00.743Z,16.83
2023-05-20T02:02:13.488Z,16.63
2023-05-20T02:06:27.735Z,16.38
2023-05-20T02:10:40.686Z,16.69
2023-05-20T02:14:53.161Z,16.58
2023-05-20T02:19:05.621Z,16.43
2023-05-20T02:23:18.113Z,16.44
2023-05-20T02:27:30.550Z,16.50
2023-05-20T02:31:44.048Z,16.48
2023-05-20T02:35:56.496Z,16.39
2023-05-20T02:40:09.607Z,16.34
2023-05-20T02:44:24.405Z,16.09
2023-05-20T02:48:36.773Z,16.17
2023-05-20T02:52:50.184Z,16.10
2023-05-20T02:57:03.672Z,16.08
2023-05-20T03:01:16.233Z,15.96
2023-05-20T03:05:28.620Z,15.82
2023-05-20T03:09:41.878Z,15.86
2023-05-20T03:13:54.489Z,15.86
2023-05-20T03:18:08.738Z,16.00
2023-05-20T03:22:22.121Z,15.94
2023-05-20T03:26:37.863Z,15.92
2023-05-20T03:30:50.454Z,16.30
2023-05-20T03:35:03.520Z,16.29
2023-05-20T03:39:16.263Z,16.41
2023-05-20T03:43:29.872Z,16.45
2023-05-20T03:47:42.585Z,16.65
2023-05-20T03:51:55.101Z,16.83
2023-05-20T03:56:07.669Z,16.91
2023-05-20T04:00:21.988Z,17.01
2023-05-20T04:04:35.002Z,17.19
2023-05-20T04:08:47.526Z,17.35
2023-05-20T04:13:00.433Z,17.54
2023-05-20T04:17:13.032Z,17.76
2023-05-20T04:21:25.661Z,18.06
2023-05-20T04:25:39.195Z,18.26
2023-05-20T04:29:53.348Z,18.62
2023-05-20T04:34:06.134Z,19.78
2023-05-20T04:38:18.745Z,21.43
2023-05-20T04:42:31.209Z,21.93
2023-05-20T04:46:45.027Z,22.18
2023-05-20T04:50:57.429Z,22.51
2023-05-20T04:55:10.849Z,21.76
2023-05-20T04:59:23.515Z,21.95
2023-05-20T05:03:36.835Z,22.07
2023-05-20T05:07:49.988Z,22.49
2023-05-20T05:12:03.090Z,22.21
2023-05-20T05:16:15.550Z,22.08
2023-05-20T05:20:28.421Z,21.68
2023-05-20T05:24:41.064Z,21.79
2023-05-20T05:28:55.309Z,21.23
2023-05-20T05:33:08.403Z,21.25
2023-05-20T05:37:21.504Z,21.72
2023-05-20T05:41:34.680Z,21.59
2023-05-20T05:45:47.564Z,22.36
2023-05-20T05:50:02.666Z,22.82
2023-05-20T05:54:23.354Z,22.56
2023-05-20T05:58:36.712Z,22.48
2023-05-20T06:02:51.444Z,23.01
2023-05-20T06:07:23.946Z,24.00
2023-05-20T06:11:37.550Z,24.70
2023-05-20T06:15:51.199Z,24.93
2023-05-20T06:20:04.155Z,25.66
2023-05-20T06:24:16.689Z,25.69
2023-05-20T06:28:31.138Z,25.91
2023-05-20T06:32:43.667Z,25.81
2023-05-20T06:36:56.630Z,25.71
2023-05-20T06:41:09.148Z,25.32
2023-05-20T06:45:22.262Z,24.80
2023-05-20T06:49:39.060Z,25.70
2023-05-20T06:53:51.669Z,26.05
2023-05-20T06:58:04.356Z,26.38
2023-05-20T07:02:17.620Z,25.94
2023-05-20T07:06:31.868Z,26.07
2023-05-20T07:10:46.136Z,25.94
2023-05-20T07:15:01.742Z,26.47
2023-05-20T07:19:14.408Z,25.66
2023-05-20T07:23:27.373Z,25.73
2023-05-20T07:27:41.235Z,26.81
2023-05-20T07:31:54.031Z,27.75
2023-05-20T07:36:08.011Z,26.86
2023-05-20T07:40:24.317Z,28.30
2023-05-20T07:44:36.982Z,27.68
2023-05-20T07:48:50.471Z,26.49
2023-05-20T07:53:03.053Z,25.81
2023-05-20T07:57:17.172Z,26.47
2023-05-20T08:01:30.366Z,26.21
2023-05-20T08:05:42.959Z,26.83
2023-05-20T08:09:55.910Z,26.86
2023-05-20T08:14:08.646Z,28.26
2023-05-20T08:18:27.813Z,27.61
2023-05-20T08:22:41.109Z,27.27
2023-05-20T08:26:53.652Z,26.94
2023-05-20T08:31:09.022Z,27.25
2023-05-20T08:35:24.017Z,27.19
2023-05-20T08:39:37.584Z,27.26
2023-05-20T08:43:52.590Z,27.50
2023-05-20T08:48:05.796Z,28.31
2023-05-20T08:52:22.878Z,28.67
2023-05-20T08:56:37.176Z,28.54
2023-05-20T09:00:50.154Z,28.25
2023-05-20T09:05:03.321Z,28.20
2023-05-20T09:09:16.241Z,28.41
2023-05-20T09:13:31.134Z,28.26
2023-05-20T09:17:43.721Z,28.55
2023-05-20T09:21:56.544Z,27.58
2023-05-20T09:26:09.133Z,28.08
2023-05-20T09:30:22.572Z,29.38
2023-05-20T09:34:36.572Z,29.91
2023-05-20T09:38:53.821Z,30.28
2023-05-20T09:43:08.192Z,29.43
2023-05-20T09:47:21.125Z,28.92
2023-05-20T09:51:34.719Z,28.25
2023-05-20T09:55:47.422Z,28.77
2023-05-20T09:59:59.801Z,28.16
2023-05-20T10:04:14.318Z,28.22
2023-05-20T10:08:43.159Z,29.08
2023-05-20T10:13:10.397Z,28.22
2023-05-20T10:17:25.451Z,28.48
2023-05-20T10:21:38.421Z,29.08
2023-05-20T10:25:55.380Z,28.27
2023-05-20T10:30:17.000Z,28.19
2023-05-20T10:34:29.563Z,28.36
2023-05-20T10:38:52.768Z,28.41
2023-05-20T10:43:13.003Z,27.60
2023-05-20T10:47:26.486Z,28.07
2023-05-20T10:51:39.670Z,28.34
2023-05-20T10:55:53.726Z,28.07
2023-05-20T11:00:07.000Z,27.28
2023-05-20T11:04:19.923Z,28.52
2023-05-20T11:08:32.534Z,27.26
2023-05-20T11:12:45.161Z,27.68
2023-05-20T11:16:59.751Z,28.17
2023-05-20T11:21:12.326Z,28.12
2023-05-20T11:25:24.734Z,27.35
2023-05-20T11:29:38.273Z,27.61
2023-05-20T11:33:52.482Z,27.31
2023-05-20T11:38:09.473Z,27.64
2023-05-20T11:42:22.216Z,28.14
2023-05-20T11:46:44.744Z,27.53
2023-05-20T11:50:59.947Z,28.28
2023-05-20T11:55:16.172Z,28.41
2023-05-20T11:59:28.858Z,28.09
2023-05-20T12:03:41.413Z,27.93
2023-05-20T12:07:56.032Z,28.08
2023-05-20T12:12:08.982Z,28.41
2023-05-20T12:16:21.375Z,28.05
2023-05-20T12:20:37.456Z,27.75
2023-05-20T12:24:51.835Z,27.24
2023-05-20T12:29:05.426Z,27.02
2023-05-20T12:33:17.835Z,27.23
2023-05-20T12:37:30.609Z,28.15
2023-05-20T12:41:43.125Z,28.20
2023-05-20T12:45:56.309Z,27.36
2023-05-20T12:50:09.169Z,27.17
2023-05-20T12:54:21.755Z,27.69
2023-05-20T12:58:34.268Z,27.42
2023-05-20T13:02:46.731Z,27.68
2023-05-20T13:06:59.527Z,27.32
2023-05-20T13:11:12.114Z,27.48
2023-05-20T13:15:24.505Z,27.22
2023-05-20T13:19:38.346Z,27.07
2023-05-20T13:23:50.834Z,26.55
2023-05-20T13:28:06.253Z,26.41
2023-05-20T13:32:18.853Z,26.47
2023-05-20T13:36:31.358Z,26.63
2023-05-20T13:40:43.843Z,26.82
2023-05-20T13:44:56.567Z,26.58
2023-05-20T13:49:09.065Z,26.86
2023-05-20T13:53:21.670Z,27.13
2023-05-20T13:57:34.290Z,27.67
2023-05-20T14:01:46.883Z,27.66
2023-05-20T14:06:00.167Z,27.63
2023-05-20T14:10:12.685Z,26.88
2023-05-20T14:14:25.537Z,27.56
2023-05-20T14:18:38.041Z,27.93
2023-05-20T14:22:50.574Z,27.92
2023-05-20T14:27:03.046Z,27.71
2023-05-20T14:31:15.621Z,28.08
2023-05-20T14:35:28.079Z,27.10
2023-05-20T14:39:40.557Z,27.77
2023-05-20T14:43:53.016Z,28.02
2023-05-20T14:48:05.981Z,27.69
2023-05-20T14:52:21.891Z,27.29
2023-05-20T14:56:34.640Z,27.22
2023-05-20T15:00:47.143Z,27.33
2023-05-20T15:04:59.576Z,27.26
2023-05-20T15:09:12.153Z,27.00
2023-05-20T15:13:24.611Z,26.70
2023-05-20T15:17:37.210Z,27.02
2023-05-20T15:21:52.004Z,26.06
2023-05-20T15:26:05.442Z,25.33
2023-05-20T15:30:18.219Z,25.47
2023-05-20T15:34:30.822Z,25.45
2023-05-20T15:38:44.554Z,25.03
2023-05-20T15:42:57.557Z,24.81
2023-05-20T15:47:10.094Z,24.57
2023-05-20T15:51:23.479Z,24.60
2023-05-20T15:55:36.323Z,24.62
2023-05-20T15:59:48.799Z,24.55
2023-05-20T16:04:01.287Z,24.42
2023-05-20T16:08:13.922Z,24.39
2023-05-20T16:12:26.786Z,24.42
2023-05-20T16:16:39.783Z,24.19
2023-05-20T16:20:52.428Z,23.93
2023-05-20T16:25:05.210Z,23.69
2023-05-20T16:29:17.762Z,23.26
2023-05-20T16:33:30.345Z,23.12
2023-05-20T16:37:43.371Z,23.05
2023-05-20T16:41:55.972Z,22.96
2023-05-20T16:46:08.554Z,22.85
2023-05-20T16:50:23.482Z,22.85
2023-05-20T16:54:38.570Z,22.84
2023-05-20T16:58:53.004Z,22.88
2023-05-20T17:03:05.989Z,22.87
2023-05-20T17:07:18.620Z,22.76
2023-05-20T17:11:31.377Z,22.62
2023-05-20T17:15:43.869Z,22.41
2023-05-20T17:19:56.597Z,22.23
2023-05-20T17:24:09.184Z,22.09
2023-05-20T17:28:21.790Z,21.96
2023-05-20T17:32:34.236Z,21.93
2023-05-20T17:36:46.845Z,21.76
2023-05-20T17:40:59.320Z,21.57
2023-05-20T17:45:12.082Z,21.48
2023-05-20T17:49:24.644Z,21.34
2023-05-20T17:53:37.088Z,21.21
2023-05-20T17:57:49.663Z,21.15
2023-05-20T18:02:02.171Z,20.99
2023-05-20T18:06:14.833Z,20.92
2023-05-20T18:10:27.324Z,20.77
2023-05-20T18:14:39.732Z,20.73
2023-05-20T18:18:52.355Z,20.74
2023-05-20T18:23:04.863Z,20.67
2023-05-20T18:27:17.347Z,20.59
2023-05-20T18:31:30.145Z,20.48
2023-05-20T18:35:42.630Z,20.30
2023-05-20T18:39:57.489Z,20.22
2023-05-20T18:44:09.879Z,20.11
2023-05-20T18:48:26.697Z,20.03
2023-05-20T18:52:39.813Z,19.89
2023-05-20T18:56:52.878Z,19.70
2023-05-20T19:01:05.382Z,19.77
2023-05-20T19:05:18.016Z,19.89
2023-05-20T19:09:30.411Z,19.60
2023-05-20T19:13:42.927Z,19.63
2023-05-20T19:17:55.507Z,19.56
2023-05-20T19:22:09.270Z,19.42
2023-05-20T19:26:22.316Z,19.41
2023-05-20T19:30:34.823Z,19.50
2023-05-20T19:34:47.268Z,19.41
2023-05-20T19:39:00.512Z,19.35
2023-05-20T19:43:13.298Z,19.58
2023-05-20T19:47:25.703Z,19.56
2023-05-20T19:51:38.171Z,19.37
2023-05-20T19:55:50.957Z,19.29
2023-05-20T20:00:04.789Z,19.19
2023-05-20T20:04:25.104Z,19.20
2023-05-20T20:08:40.578Z,19.15
2023-05-20T20:12:52.937Z,19.29
2023-05-20T20:17:06.518Z,19.53
2023-05-20T20:21:19.037Z,19.59
2023-05-20T20:25:35.047Z,19.44
2023-05-20T20:29:47.762Z,19.42
2023-05-20T20:34:00.156Z,19.36
2023-05-20T20:38:12.584Z,19.39
2023-05-20T20:42:24.996Z,19.30
2023-05-20T20:46:37.964Z,19.18
2023-05-20T20:50:50.329Z,19.15
2023-05-20T20:55:02.741Z,19.05
2023-05-20T20:59:16.174Z,19.03
2023-05-20T21:03:28.619Z,19.07
2023-05-20T21:07:43.864Z,18.91
2023-05-20T21:11:57.441Z,18.89
2023-05-20T21:16:09.936Z,18.96
2023-05-20T21:20:22.410Z,19.05
2023-05-20T21:24:34.758Z,18.99
2023-05-20T21:28:47.126Z,19.02
2023-05-20T21:32:59.565Z,19.07
2023-05-20T21:37:11.962Z,18.98
2023-05-20T21:41:24.770Z,18.97
2023-05-20T21:45:37.545Z,18.91
2023-05-20T21:49:50.063Z,18.92
2023-05-20T21:54:02.586Z,18.89
2023-05-20T21:58:15.063Z,18.92
2023-05-20T22:02:27.550Z,18.94
2023-05-20T22:06:40.000Z,18.96
2023-05-20T22:10:52.391Z,18.98
2023-05-20T22:15:06.089Z,18.98
2023-05-20T22:19:18.506Z,19.01
2023-05-20T22:23:30.982Z,18.98
2023-05-20T22:27:43.814Z,18.99
2023-05-20T22:31:56.132Z,19.08
2023-05-20T22:36:09.928Z,19.02
2023-05-20T22:40:22.428Z,18.92
2023-05-20T22:44:34.946Z,18.94
2023-05-20T22:48:48.616Z,18.84
2023-05-20T22:53:01.345Z,18.94
2023-05-20T22:57:13.791Z,18.96
2023-05-20T23:01:26.257Z,18.91
2023-05-20T23:05:38.853Z,18.89
2023-05-20T23:09:51.686Z,18.87
2023-05-20T23:14:04.012Z,18.95
2023-05-20T23:18:16.440Z,19.08
2023-05-20T23:22:30.491Z,19.24
2023-05-20T23:26:43.683Z,19.44
2023-05-20T23:30:56.804Z,19.50
2023-05-20T23:35:11.837Z,19.61
2023-05-20T23:39:24.418Z,19.41
2023-05-20T23:43:36.754Z,19.47
2023-05-20T23:47:49.554Z,19.56
2023-05-20T23:52:02.052Z,19.42
2023-05-20T23:56:14.452Z,19.04
